Time;durP1;ratioP1;P1;durP2;ratioP2;P2;SDS_P1;SDS_P2;PMS_P1;PMS_P2;Temp;Humidity;BMP_temperature;BMP_pressure;BME280_temperature;BME280_humidity;BME280_pressure;Samples;Min_cycle;Max_cycle;Signal;HPM_P1;HPM_P2
2023/04/02 00:01:35;;;;;;;18.25;9.02;;;;;;;5.63;100.00;101043.25;4977222;28;20037;-93
2023/04/02 00:04:13;;;;;;;22.15;9.45;;;;;;;5.73;100.00;101068.94;4979383;28;20434;-93
2023/04/02 00:06:44;;;;;;;22.00;10.20;;;;;;;5.66;100.00;101057.00;4973363;28;20047;-93
2023/04/02 00:09:10;;;;;;;20.35;10.27;;;;;;;5.74;100.00;101080.97;4957670;28;20082;-92
2023/04/02 00:11:39;;;;;;;18.13;8.68;;;;;;;5.70;100.00;101084.41;4974859;28;20050;-94
2023/04/02 00:14:32;;;;;;;21.27;10.23;;;;;;;5.56;100.00;101073.25;4958354;28;20113;-92
2023/04/02 00:17:04;;;;;;;20.30;10.43;;;;;;;5.48;100.00;101068.09;4951601;28;20039;-93
2023/04/02 00:19:43;;;;;;;21.98;11.15;;;;;;;5.49;100.00;101072.41;4972829;28;20980;-92
2023/04/02 00:22:21;;;;;;;21.75;11.10;;;;;;;5.55;100.00;101084.38;4958927;28;20093;-93
2023/04/02 00:24:53;;;;;;;22.92;10.75;;;;;;;5.59;100.00;101095.56;4959877;28;20027;-93
2023/04/02 00:27:19;;;;;;;20.52;10.27;;;;;;;5.48;100.00;101098.97;4976740;28;20066;-93
2023/04/02 00:29:53;;;;;;;20.73;10.90;;;;;;;5.54;100.00;101116.94;4966635;28;20124;-93
2023/04/02 00:32:26;;;;;;;23.85;11.10;;;;;;;5.40;100.00;101112.66;4958671;28;20062;-93
2023/04/02 00:34:52;;;;;;;18.95;9.73;;;;;;;5.41;100.00;101111.78;4961267;28;20088;-92
2023/04/02 00:37:24;;;;;;;19.75;9.93;;;;;;;5.31;100.00;101104.94;4965122;28;20125;-92
2023/04/02 00:40:18;;;;;;;21.42;10.27;;;;;;;5.31;100.00;101110.94;4976745;28;20069;-92
2023/04/02 00:42:47;;;;;;;19.63;9.98;;;;;;;5.25;100.00;101108.34;4958663;28;20480;-92
2023/04/02 00:45:28;;;;;;;20.73;10.30;;;;;;;5.41;100.00;101122.06;4975030;28;20261;-93
2023/04/02 00:47:55;;;;;;;23.75;11.35;;;;;;;5.31;100.00;101121.22;4961216;28;20038;-92
2023/04/02 00:50:28;;;;;;;23.48;11.18;;;;;;;5.35;100.00;101133.22;4960085;28;20078;-92
2023/04/02 00:52:57;;;;;;;23.17;11.43;;;;;;;5.26;100.00;101115.19;4965034;28;20594;-93
2023/04/02 00:55:38;;;;;;;20.35;10.40;;;;;;;5.31;100.00;101140.91;4964797;28;21019;-92
2023/04/02 00:58:12;;;;;;;21.45;12.60;;;;;;;5.20;100.00;101137.44;4962461;28;20034;-92
2023/04/02 01:00:47;;;;;;;21.45;10.23;;;;;;;5.32;100.00;101158.88;4960970;28;20029;-93
2023/04/02 01:03:36;;;;;;;21.42;11.10;;;;;;;5.16;100.00;101152.88;4978031;28;20054;-92
2023/04/02 01:06:15;;;;;;;19.42;10.18;;;;;;;5.27;100.00;101175.16;4962189;28;20137;-92
2023/04/02 01:09:10;;;;;;;21.23;11.70;;;;;;;5.26;100.00;101176.00;4969705;28;20070;-93
2023/04/02 01:12:03;;;;;;;18.77;9.40;;;;;;;5.19;100.00;101177.69;4981459;28;20058;-93
2023/04/02 01:14:38;;;;;;;20.65;11.38;;;;;;;5.22;100.00;101194.84;4966673;28;20030;-92
2023/04/02 01:17:14;;;;;;;21.40;11.73;;;;;;;5.17;100.00;101179.44;4978536;28;20103;-93
2023/04/02 01:20:13;;;;;;;25.27;12.05;;;;;;;5.25;100.00;101198.31;4977502;28;20084;-93
2023/04/02 01:23:17;;;;;;;24.73;12.43;;;;;;;5.15;100.00;101188.81;4979975;28;20113;-93
2023/04/02 01:25:53;;;;;;;25.25;12.88;;;;;;;5.10;100.00;101188.81;4964822;28;20142;-94
2023/04/02 01:28:26;;;;;;;24.88;12.38;;;;;;;5.06;100.00;101199.06;4981142;28;20126;-93
2023/04/02 01:31:04;;;;;;;24.48;11.95;;;;;;;5.04;100.00;101201.63;4995888;28;20092;-93
2023/04/02 01:33:36;;;;;;;26.40;12.23;;;;;;;5.04;100.00;101214.50;4979809;28;20037;-93
2023/04/02 01:36:15;;;;;;;25.55;13.60;;;;;;;5.10;100.00;101227.34;4978732;28;20019;-93
2023/04/02 01:39:01;;;;;;;22.15;11.60;;;;;;;5.00;100.00;101217.88;4977890;28;20057;-93
2023/04/02 01:41:48;;;;;;;23.00;10.68;;;;;;;4.97;100.00;101233.28;4978900;28;20026;-93
2023/04/02 01:44:50;;;;;;;20.98;10.30;;;;;;;4.91;100.00;101217.84;4967752;28;20033;-94
2023/04/02 01:47:21;;;;;;;18.17;9.70;;;;;;;4.88;100.00;101219.53;4944242;28;20045;-93
2023/04/02 01:49:55;;;;;;;20.85;10.05;;;;;;;5.02;100.00;101246.16;4966720;28;20030;-93
2023/04/02 01:52:45;;;;;;;18.77;9.88;;;;;;;4.96;100.00;101239.28;4966644;28;20037;-93
2023/04/02 01:55:28;;;;;;;19.70;9.82;;;;;;;5.00;100.00;101264.13;4966736;28;20057;-93
2023/04/02 01:58:02;;;;;;;17.48;9.65;;;;;;;4.89;100.00;101255.50;4979773;28;20072;-93
2023/04/02 02:00:29;;;;;;;;;;;;;;;4.94;100.00;101263.22;4978495;28;20061;-92
2023/04/02 02:02:55;;;;;;;17.17;8.77;;;;;;;4.87;100.00;101267.47;4994499;28;20309;-92
2023/04/02 02:05:22;;;;;;;14.45;7.50;;;;;;;4.79;100.00;101263.97;4978328;28;20078;-93
2023/04/02 02:08:00;;;;;;;14.32;8.57;;;;;;;4.81;100.00;101266.56;4964640;28;20155;-94
2023/04/02 02:10:37;;;;;;;13.30;7.53;;;;;;;4.85;100.00;101288.84;4960256;28;20030;-92
2023/04/02 02:13:03;;;;;;;11.77;6.63;;;;;;;4.74;100.00;101275.94;4960758;28;20427;-94
2023/04/02 02:15:32;;;;;;;11.40;6.95;;;;;;;4.69;100.00;101286.19;4966405;28;20621;-93
2023/04/02 02:18:02;;;;;;;12.98;6.78;;;;;;;4.71;100.00;101291.31;4965092;28;20062;-92
2023/04/02 02:20:29;;;;;;;11.07;6.50;;;;;;;4.73;100.00;101305.03;4975290;28;20497;-93
2023/04/02 02:22:59;;;;;;;12.00;6.97;;;;;;;4.73;100.00;101311.03;4959891;28;20322;-94
2023/04/02 02:25:31;;;;;;;11.23;6.88;;;;;;;4.72;100.00;101304.16;4975617;28;20027;-92
2023/04/02 02:28:18;;;;;;;11.32;6.78;;;;;;;4.79;100.00;101320.47;4976818;28;20030;-93
2023/04/02 02:31:11;;;;;;;10.85;6.07;;;;;;;4.72;100.00;101309.28;4961636;28;20058;-93
2023/04/02 02:33:52;;;;;;;11.88;6.78;;;;;;;4.73;100.00;101310.16;4958540;28;20023;-93
2023/04/02 02:36:26;;;;;;;12.75;6.88;;;;;;;4.83;100.00;101322.25;4974517;28;20479;-92
2023/04/02 02:39:16;;;;;;;13.73;7.72;;;;;;;4.86;100.00;101331.66;4975014;28;20026;-93
2023/04/02 02:41:45;;;;;;;16.42;8.98;;;;;;;4.94;100.00;101345.41;4960458;28;20055;-93
2023/04/02 02:44:18;;;;;;;17.38;9.98;;;;;;;4.82;100.00;101329.91;4960855;28;20107;-94
2023/04/02 02:46:58;;;;;;;16.15;9.07;;;;;;;4.86;100.00;101353.06;4963202;28;20344;-92
2023/04/02 02:49:34;;;;;;;19.45;10.88;;;;;;;4.83;100.00;101345.34;4973802;28;20024;-93
2023/04/02 02:52:24;;;;;;;19.00;10.73;;;;;;;4.80;100.00;101337.59;4963899;28;20720;-92
2023/04/02 02:55:15;;;;;;;16.90;9.45;;;;;;;4.90;100.00;101372.81;4963088;28;20554;-92
2023/04/02 02:58:03;;;;;;;17.50;9.10;;;;;;;4.75;100.00;101355.56;4961449;28;20237;-92
2023/04/02 03:00:49;;;;;;;18.60;10.38;;;;;;;4.80;100.00;101371.00;4957469;28;20039;-92
2023/04/02 03:03:22;;;;;;;20.08;11.55;;;;;;;4.86;100.00;101391.59;4959432;28;20059;-93
2023/04/02 03:06:00;;;;;;;18.63;10.55;;;;;;;4.75;100.00;101368.41;4972153;28;20530;-92
2023/04/02 03:08:33;;;;;;;16.27;8.95;;;;;;;4.71;100.00;101382.03;4976054;28;20050;-92
2023/04/02 03:11:23;;;;;;;16.80;9.85;;;;;;;4.86;100.00;101393.28;4964646;28;20494;-93
2023/04/02 03:13:51;;;;;;;19.05;10.02;;;;;;;4.69;100.00;101386.31;4978431;28;20069;-92
2023/04/02 03:16:27;;;;;;;19.45;9.70;;;;;;;4.65;100.00;101378.56;4978044;28;20080;-92
2023/04/02 03:18:59;;;;;;;19.77;10.30;;;;;;;4.81;100.00;101405.25;4976720;28;20034;-92
2023/04/02 03:21:52;;;;;;;18.02;10.38;;;;;;;4.82;100.00;101419.81;4978249;28;20112;-92
2023/04/02 03:24:33;;;;;;;17.67;9.40;;;;;;;4.69;100.00;101395.72;4979835;28;20027;-93
2023/04/02 03:27:10;;;;;;;18.23;8.98;;;;;;;4.69;100.00;101413.69;4977318;28;20058;-92
2023/04/02 03:29:42;;;;;;;17.13;9.38;;;;;;;4.68;100.00;101420.53;4976075;28;20026;-92
2023/04/02 03:32:12;;;;;;;16.27;9.27;;;;;;;4.72;100.00;101442.81;4978308;28;20580;-94
2023/04/02 03:35:01;;;;;;;20.38;9.45;;;;;;;4.64;100.00;101436.75;4975526;28;20038;-92
2023/04/02 03:37:33;;;;;;;17.83;9.48;;;;;;;4.65;100.00;101435.03;4977102;28;20387;-93
2023/04/02 03:40:08;;;;;;;16.90;9.07;;;;;;;4.60;100.00;101449.53;4962155;28;20026;-92
2023/04/02 03:42:49;;;;;;;17.63;8.48;;;;;;;4.60;100.00;101464.94;4959798;28;20113;-93
2023/04/02 03:45:27;;;;;;;14.55;7.90;;;;;;;4.51;100.00;101457.13;4976764;28;20026;-93
2023/04/02 03:48:04;;;;;;;17.02;11.18;;;;;;;4.57;100.00;101485.47;4975989;28;20037;-92
2023/04/02 03:50:39;;;;;;;14.85;8.52;;;;;;;4.56;100.00;101501.72;4976676;28;20038;-92
2023/04/02 03:53:05;;;;;;;18.08;8.77;;;;;;;4.39;100.00;101473.28;4978070;28;20027;-93
2023/04/02 03:55:36;;;;;;;16.33;9.00;;;;;;;4.42;100.00;101483.59;4977535;28;20026;-91
2023/04/02 03:58:23;;;;;;;17.27;9.23;;;;;;;4.52;100.00;101500.81;4976311;28;20058;-92
2023/04/02 04:00:53;;;;;;;18.48;9.85;;;;;;;4.52;100.00;101507.63;4979077;28;20034;-92
2023/04/02 04:03:25;;;;;;;21.00;9.90;;;;;;;4.42;100.00;101485.28;4968534;28;20083;-92
2023/04/02 04:06:04;;;;;;;18.80;10.93;;;;;;;4.42;100.00;101498.13;4979293;28;20386;-92
2023/04/02 04:08:41;;;;;;;17.83;9.07;;;;;;;4.47;100.00;101511.88;4967863;28;20125;-92
2023/04/02 04:11:15;;;;;;;16.48;8.70;;;;;;;4.38;100.00;101515.19;4980995;28;20030;-92
2023/04/02 04:13:52;;;;;;;17.65;8.48;;;;;;;4.34;100.00;101518.56;4968450;28;20026;-93
2023/04/02 04:16:28;;;;;;;15.48;8.07;;;;;;;4.33;100.00;101525.41;4980245;28;20525;-93
2023/04/02 04:19:09;;;;;;;14.50;7.50;;;;;;;4.36;100.00;101539.97;4980428;28;20030;-93
2023/04/02 04:21:37;;;;;;;15.35;7.47;;;;;;;4.31;100.00;101531.34;4964203;28;20455;-93
2023/04/02 04:24:16;;;;;;;13.55;7.00;;;;;;;4.23;100.00;101540.66;4980129;28;20026;-92
2023/04/02 04:27:02;;;;;;;13.88;7.53;;;;;;;4.27;100.00;101544.97;4981576;28;20125;-92
2023/04/02 04:30:05;;;;;;;16.25;7.50;;;;;;;4.36;100.00;101570.78;4978251;28;20706;-92
2023/04/02 04:32:50;;;;;;;13.63;6.95;;;;;;;4.27;100.00;101560.38;4980973;28;20030;-92
2023/04/02 04:35:24;;;;;;;13.00;7.00;;;;;;;4.28;100.00;101580.06;4968504;28;20141;-93
2023/04/02 04:37:58;;;;;;;13.63;7.35;;;;;;;4.21;100.00;101578.25;4981281;28;20023;-93
2023/04/02 04:40:28;;;;;;;15.43;7.70;;;;;;;4.24;100.00;101594.53;4981027;28;20031;-93
2023/04/02 04:42:58;;;;;;;13.48;7.20;;;;;;;4.17;100.00;101590.16;4979601;28;20091;-92
2023/04/02 04:46:03;;;;;;;14.23;8.00;;;;;;;4.13;100.00;101598.66;4982207;28;20093;-93
2023/04/02 04:48:41;;;;;;;13.33;7.40;;;;;;;4.17;100.00;101617.53;4979158;28;20042;-93
2023/04/02 04:51:20;;;;;;;14.95;8.30;;;;;;;4.13;100.00;101616.63;4978269;28;20042;-93
2023/04/02 04:53:49;;;;;;;13.32;8.45;;;;;;;4.03;100.00;101616.44;4980717;28;20177;-93
2023/04/02 04:56:22;;;;;;;13.38;6.82;;;;;;;3.99;100.00;101610.44;4980641;28;20058;-93
2023/04/02 04:58:53;;;;;;;13.73;7.47;;;;;;;4.07;100.00;101636.19;4963542;28;20077;-92
2023/04/02 05:01:41;;;;;;;12.48;7.32;;;;;;;4.01;100.00;101628.41;4979721;28;20026;-92
2023/04/02 05:04:23;;;;;;;12.93;6.80;;;;;;;4.09;100.00;101658.47;4996103;28;20484;-93
2023/04/02 05:07:08;;;;;;;12.75;7.20;;;;;;;3.92;100.00;101636.81;4963215;28;20122;-91
2023/04/02 05:09:43;;;;;;;13.27;6.93;;;;;;;3.91;100.00;101627.38;4976164;28;20583;-93
2023/04/02 05:12:34;;;;;;;14.05;7.82;;;;;;;4.04;100.00;101665.22;4957618;28;20479;-92
2023/04/02 05:15:21;;;;;;;14.15;7.32;;;;;;;4.03;100.00;101665.19;4963983;28;21116;-92
2023/04/02 05:17:49;;;;;;;14.65;8.50;;;;;;;3.89;100.00;101647.03;4958699;28;20034;-92
2023/04/02 05:20:20;;;;;;;16.42;7.95;;;;;;;3.95;100.00;101670.22;4974279;28;20022;-92
2023/04/02 05:22:59;;;;;;;14.73;8.10;;;;;;;3.95;100.00;101672.78;4975232;28;20031;-92
2023/04/02 05:25:31;;;;;;;15.55;7.78;;;;;;;3.88;100.00;101668.38;4963711;28;20515;-92
2023/04/02 05:28:25;;;;;;;14.90;8.00;;;;;;;4.01;100.00;101693.41;4961103;28;20035;-92
2023/04/02 05:30:55;;;;;;;13.45;7.22;;;;;;;4.03;100.00;101703.66;4963402;28;20412;-92
2023/04/02 05:33:27;;;;;;;15.63;8.35;;;;;;;4.01;100.00;101698.53;4976159;28;20096;-92
2023/04/02 05:36:02;;;;;;;14.20;8.70;;;;;;;3.97;100.00;101695.03;4956453;28;20034;-92
2023/04/02 05:38:32;;;;;;;17.10;9.30;;;;;;;3.91;100.00;101679.53;4959868;28;20110;-92
2023/04/02 05:41:35;;;;;;;17.42;8.90;;;;;;;4.05;100.00;101705.44;4957257;28;20038;-92
2023/04/02 05:44:25;;;;;;;14.68;8.88;;;;;;;4.07;100.00;101714.03;4972531;28;20515;-92
2023/04/02 05:47:26;;;;;;;18.65;9.95;;;;;;;4.04;100.00;101715.66;4962936;28;20031;-92
2023/04/02 05:50:15;;;;;;;18.75;9.93;;;;;;;3.93;100.00;101716.34;4960093;28;20300;-92
2023/04/02 05:53:19;;;;;;;18.40;9.85;;;;;;;3.90;100.00;101726.53;4974598;28;20031;-91
2023/04/02 05:55:48;;;;;;;17.80;9.10;;;;;;;3.92;100.00;101753.09;4973871;28;20031;-93
2023/04/02 05:58:20;;;;;;;17.52;9.63;;;;;;;3.78;100.00;101739.16;4974698;28;20090;-93
2023/04/02 06:01:01;;;;;;;17.50;9.80;;;;;;;3.74;100.00;101746.78;4958622;28;20042;-93
2023/04/02 06:03:52;;;;;;;17.95;9.40;;;;;;;3.81;100.00;101756.31;4961909;28;20112;-93
2023/04/02 06:06:32;;;;;;;18.48;9.45;;;;;;;3.81;100.00;101767.44;4962503;28;20053;-93
2023/04/02 06:09:07;;;;;;;15.52;8.23;;;;;;;3.74;100.00;101759.59;4978033;28;20030;-93
2023/04/02 06:11:44;;;;;;;18.65;9.38;;;;;;;3.76;100.00;101771.59;4979653;28;20568;-92
2023/04/02 06:14:16;;;;;;;18.55;9.10;;;;;;;3.75;100.00;101782.69;4960877;28;20110;-93
2023/04/02 06:16:44;;;;;;;15.18;8.75;;;;;;;3.81;100.00;101785.38;4995185;28;20061;-93
2023/04/02 06:19:19;;;;;;;15.80;8.27;;;;;;;3.78;100.00;101793.00;4966673;28;20524;-93
2023/04/02 06:21:51;;;;;;;18.45;9.13;;;;;;;3.89;100.00;101821.44;4979625;28;20027;-93
2023/04/02 06:24:23;;;;;;;15.77;8.57;;;;;;;3.82;100.00;101807.59;4978798;28;20160;-93
2023/04/02 06:27:01;;;;;;;16.35;8.23;;;;;;;3.77;100.00;101804.09;4979578;28;20065;-92
2023/04/02 06:29:37;;;;;;;16.45;7.53;;;;;;;3.86;100.00;101823.91;4977682;28;20116;-93
2023/04/02 06:32:12;;;;;;;13.15;6.75;;;;;;;3.75;100.00;101825.41;4979476;28;20493;-92
2023/04/02 06:34:47;;;;;;;13.15;7.25;;;;;;;3.62;100.00;101815.75;4977869;28;20037;-92
2023/04/02 06:37:13;;;;;;;14.55;7.53;;;;;;;3.74;100.00;101839.94;4979304;28;20054;-93
2023/04/02 06:39:38;;;;;;;14.02;6.63;;;;;;;3.69;100.00;101835.53;4992886;28;20329;-92
2023/04/02 06:42:15;;;;;;;12.85;7.43;;;;;;;3.64;100.00;101832.00;4992706;28;20041;-92
2023/04/02 06:44:41;;;;;;;12.15;6.18;;;;;;;3.64;100.00;101830.31;4979493;28;20030;-91
2023/04/02 06:47:25;;;;;;;12.70;6.20;;;;;;;3.69;100.00;101832.97;4977441;28;20053;-93
2023/04/02 06:50:02;;;;;;;12.02;5.80;;;;;;;3.70;100.00;101847.50;4965448;28;20093;-92
2023/04/02 06:52:53;;;;;;;9.75;4.75;;;;;;;3.77;100.00;101860.50;4966813;28;20041;-93
2023/04/02 06:55:19;;;;;;;11.50;5.90;;;;;;;3.78;100.00;101881.88;4993530;28;20064;-93
2023/04/02 06:57:47;;;;;;;11.38;5.55;;;;;;;3.77;100.00;101887.84;4978080;28;20426;-92
2023/04/02 07:00:38;;;;;;;10.43;5.07;;;;;;;3.64;100.00;101873.91;4965943;28;20122;-92
2023/04/02 07:03:14;;;;;;;8.82;5.30;;;;;;;3.69;100.00;101881.66;4976630;28;20241;-94
2023/04/02 07:05:40;;;;;;;9.85;5.32;;;;;;;3.70;100.00;101894.53;4976410;28;20459;-93
2023/04/02 07:08:08;;;;;;;10.02;4.57;;;;;;;3.66;100.00;101908.13;4977450;28;20542;-93
2023/04/02 07:10:36;;;;;;;8.98;3.45;;;;;;;3.55;100.00;101913.00;4977272;28;20483;-93
2023/04/02 07:13:02;;;;;;;6.90;3.88;;;;;;;3.63;100.00;101935.38;4965960;28;20027;-94
2023/04/02 07:15:30;;;;;;;10.63;4.50;;;;;;;3.58;100.00;101932.72;4993473;28;20030;-93
2023/04/02 07:17:59;;;;;;;9.48;4.03;;;;;;;3.65;100.00;101949.09;4993975;28;20018;-93
2023/04/02 07:20:40;;;;;;;7.63;3.80;;;;;;;3.55;100.00;101938.63;4965777;28;20036;-94
2023/04/02 07:23:09;;;;;;;7.55;4.15;;;;;;;3.47;100.00;101934.19;4965356;28;20311;-92
2023/04/02 07:25:57;;;;;;;8.30;4.40;;;;;;;3.50;100.00;101949.63;4976901;28;20482;-93
2023/04/02 07:28:26;;;;;;;8.18;4.00;;;;;;;3.48;100.00;101948.75;4976944;28;20030;-93
2023/04/02 07:31:39;;;;;;;8.60;4.10;;;;;;;3.49;100.00;101955.56;4976059;28;20037;-92
2023/04/02 07:34:09;;;;;;;8.75;3.70;;;;;;;3.54;100.00;101954.88;4990546;28;20034;-94
2023/04/02 07:36:34;;;;;;;7.75;3.90;;;;;;;3.67;100.00;101961.16;4977818;28;20534;-93
2023/04/02 07:39:03;;;;;;;8.52;3.80;;;;;;;3.69;100.00;101959.47;4978168;28;20515;-92
2023/04/02 07:41:32;;;;;;;7.25;3.78;;;;;;;3.76;100.00;101976.72;4977073;28;20018;-92
2023/04/02 07:44:14;;;;;;;9.45;3.75;;;;;;;3.79;100.00;101984.47;4978339;28;20042;-92
2023/04/02 07:47:03;;;;;;;8.32;3.70;;;;;;;3.78;100.00;101997.25;4976071;28;20054;-92
2023/04/02 07:49:41;;;;;;;8.55;3.65;;;;;;;3.79;100.00;101994.75;4939576;28;20038;-92
2023/04/02 07:52:10;;;;;;;7.10;3.50;;;;;;;3.70;100.00;101984.28;4977779;28;20305;-93
2023/04/02 07:54:47;;;;;;;9.02;3.20;;;;;;;3.77;100.00;101995.53;4991923;28;20406;-92
2023/04/02 07:57:35;;;;;;;7.15;3.60;;;;;;;3.78;100.00;101997.25;4965229;28;21299;-94
2023/04/02 08:00:13;;;;;;;7.38;3.50;;;;;;;3.82;100.00;101997.34;4979019;28;20026;-92
2023/04/02 08:02:47;;;;;;;5.47;3.40;;;;;;;3.79;100.00;101996.44;4959450;28;20462;-94
2023/04/02 08:05:16;;;;;;;5.82;2.95;;;;;;;3.86;100.00;102014.56;4965337;28;20077;-95
2023/04/02 08:07:57;;;;;;;6.75;3.13;;;;;;;3.89;100.00;102019.75;4992009;28;20399;-94
2023/04/02 08:10:23;;;;;;;8.38;3.42;;;;;;;3.81;100.00;102008.47;4976552;28;20037;-93
2023/04/02 08:12:54;;;;;;;8.10;3.60;;;;;;;3.92;100.00;102013.81;4978035;28;20760;-92
2023/04/02 08:15:22;;;;;;;10.88;3.53;;;;;;;4.05;100.00;102027.78;4976096;28;20038;-93
2023/04/02 08:17:57;;;;;;;7.38;3.55;;;;;;;4.02;98.86;102025.16;4976419;28;20125;-92
2023/04/02 08:20:26;;;;;;;6.38;3.47;;;;;;;4.02;99.94;102031.16;5000476;28;20042;-93
2023/04/02 08:22:55;;;;;;;7.10;3.45;;;;;;;4.12;99.62;102032.22;4977299;28;20065;-93
2023/04/02 08:25:23;;;;;;;6.18;2.88;;;;;;;4.15;97.86;102028.03;4987129;28;20033;-92
2023/04/02 08:27:52;;;;;;;7.75;3.20;;;;;;;4.11;97.89;102044.19;4976606;28;20057;-94
2023/04/02 08:30:18;;;;;;;5.20;2.90;;;;;;;4.13;97.55;102067.31;4990775;28;20138;-93
2023/04/02 08:32:45;;;;;;;7.65;3.22;;;;;;;3.98;99.42;102048.19;5005742;28;20080;-92
2023/04/02 08:35:15;;;;;;;6.15;3.00;;;;;;;4.12;98.52;102068.13;4974717;28;20533;-91
2023/04/02 08:37:42;;;;;;;9.10;3.17;;;;;;;4.20;97.09;102082.00;4975900;28;20042;-93
2023/04/02 08:40:20;;;;;;;6.32;3.00;;;;;;;4.18;97.37;102081.97;4991247;28;20056;-92
2023/04/02 08:43:04;;;;;;;5.45;3.10;;;;;;;4.21;97.76;102076.91;4993484;28;20081;-93
2023/04/02 08:46:01;;;;;;;8.10;3.00;;;;;;;4.46;97.81;102103.09;4982079;28;20124;-93
2023/04/02 08:48:32;;;;;;;6.78;2.75;;;;;;;4.40;96.43;102088.44;4980542;28;20034;-93
2023/04/02 08:51:08;;;;;;;5.57;2.80;;;;;;;4.44;97.22;102097.94;4967326;28;20018;-94
2023/04/02 08:53:40;;;;;;;7.22;3.03;;;;;;;4.37;96.54;102089.22;4969563;28;20516;-93
2023/04/02 08:56:17;;;;;;;8.35;3.55;;;;;;;4.45;97.60;102103.94;4979910;28;20118;-93
2023/04/02 08:59:17;;;;;;;7.20;3.03;;;;;;;4.51;97.28;102117.75;4978537;28;20034;-92
2023/04/02 09:02:12;;;;;;;4.55;2.53;;;;;;;4.52;98.87;102116.94;4955325;28;20502;-94
2023/04/02 09:04:40;;;;;;;7.90;3.03;;;;;;;4.60;98.28;102124.81;4969306;28;20038;-93
2023/04/02 09:07:13;;;;;;;6.43;2.95;;;;;;;4.57;97.57;102123.03;4975561;28;20139;-92
2023/04/02 09:09:39;;;;;;;6.10;3.08;;;;;;;4.69;95.94;102146.44;4974989;28;20034;-93
2023/04/02 09:12:14;;;;;;;5.90;2.80;;;;;;;4.57;95.54;102135.88;4961029;28;20558;-93
2023/04/02 09:14:47;;;;;;;6.13;2.88;;;;;;;4.58;96.38;102137.59;4959269;28;20050;-93
2023/04/02 09:17:45;;;;;;;5.80;3.40;;;;;;;4.39;95.19;102130.34;4961816;28;20034;-93
2023/04/02 09:20:20;;;;;;;4.65;3.13;;;;;;;4.42;95.49;102148.38;4975343;28;20040;-93
2023/04/02 09:22:48;;;;;;;6.63;3.35;;;;;;;4.35;97.02;102144.81;4963590;28;20051;-93
2023/04/02 09:25:21;;;;;;;6.70;3.20;;;;;;;4.43;97.65;102173.22;4962184;28;20933;-92
2023/04/02 09:27:49;;;;;;;5.05;3.53;;;;;;;4.28;96.78;102165.19;4976883;28;20031;-92
2023/04/02 09:30:32;;;;;;;6.28;3.40;;;;;;;4.28;97.86;102170.31;4959374;28;20023;-92
2023/04/02 09:33:01;;;;;;;5.90;3.42;;;;;;;4.42;96.88;102184.34;4974195;28;20495;-93
2023/04/02 09:35:29;;;;;;;5.45;3.13;;;;;;;4.43;96.53;102192.91;4961651;28;20061;-93
2023/04/02 09:38:21;;;;;;;6.95;3.60;;;;;;;4.47;96.69;102194.69;4957164;28;20031;-93
2023/04/02 09:40:52;;;;;;;6.55;3.47;;;;;;;4.50;97.57;102208.47;4975245;28;20511;-92
2023/04/02 09:43:40;;;;;;;7.63;3.20;;;;;;;4.29;95.92;102182.31;4964067;28;20047;-92
2023/04/02 09:46:25;;;;;;;7.05;3.10;;;;;;;4.27;98.55;102189.09;4975153;28;20031;-92
2023/04/02 09:48:59;;;;;;;6.60;3.45;;;;;;;4.33;95.74;102210.66;4960679;28;20042;-94
2023/04/02 09:51:31;;;;;;;7.00;3.15;;;;;;;4.35;95.17;102214.13;4975502;28;20035;-92
2023/04/02 09:54:03;;;;;;;6.97;3.10;;;;;;;4.42;95.58;102217.69;4960816;28;20250;-91
2023/04/02 09:56:42;;;;;;;5.68;3.35;;;;;;;4.45;98.47;102217.75;4974126;28;20041;-92
2023/04/02 09:59:20;;;;;;;6.10;3.30;;;;;;;4.56;96.70;102236.00;4960635;28;20353;-92
2023/04/02 10:01:55;;;;;;;6.65;2.80;;;;;;;4.62;96.42;102231.88;4959979;28;20031;-92
2023/04/02 10:04:42;;;;;;;6.30;3.35;;;;;;;4.43;94.48;102232.28;4976565;28;20030;-93
2023/04/02 10:07:31;;;;;;;6.50;3.10;;;;;;;4.35;96.83;102241.50;4974895;28;20043;-93
2023/04/02 10:10:03;;;;;;;5.85;3.00;;;;;;;4.44;95.60;102248.53;4974140;28;20041;-92
2023/04/02 10:12:39;;;;;;;6.32;3.05;;;;;;;4.41;95.86;102243.31;4975415;28;20030;-93
2023/04/02 10:15:14;;;;;;;6.10;3.10;;;;;;;4.59;97.32;102260.03;4961583;28;20030;-93
2023/04/02 10:17:43;;;;;;;6.55;3.20;;;;;;;4.63;97.45;102246.44;4964500;28;20038;-93
2023/04/02 10:20:20;;;;;;;6.78;3.28;;;;;;;4.66;94.23;102245.63;4960041;28;20038;-93
2023/04/02 10:22:49;;;;;;;8.02;3.40;;;;;;;4.57;95.19;102253.97;4972674;28;20030;-93
2023/04/02 10:25:20;;;;;;;6.15;3.17;;;;;;;4.53;94.29;102247.06;4964561;28;20023;-94
2023/04/02 10:28:11;;;;;;;7.22;3.50;;;;;;;4.63;95.57;102249.00;4958726;28;20049;-93
2023/04/02 10:31:21;;;;;;;6.28;3.67;;;;;;;4.76;93.31;102274.16;4959093;28;20464;-93
2023/04/02 10:33:53;;;;;;;7.88;3.10;;;;;;;4.64;94.22;102268.69;4974418;28;20031;-93
2023/04/02 10:36:36;;;;;;;5.57;3.33;;;;;;;4.83;93.94;102276.84;4963181;28;20027;-93
2023/04/02 10:39:10;;;;;;;4.65;3.13;;;;;;;4.82;93.47;102259.69;4958865;28;20040;-94
2023/04/02 10:41:46;;;;;;;5.57;3.13;;;;;;;5.16;92.73;102281.03;4974333;28;20029;-92
2023/04/02 10:44:17;;;;;;;4.72;2.80;;;;;;;5.37;90.64;102284.88;4958556;28;20045;-92
2023/04/02 10:47:14;;;;;;;7.82;3.55;;;;;;;5.54;91.27;102283.50;4974249;28;20031;-92
2023/04/02 10:50:01;;;;;;;9.15;3.40;;;;;;;5.79;87.94;102292.59;4973699;28;20307;-93
2023/04/02 10:52:38;;;;;;;4.75;3.00;;;;;;;6.05;88.61;102301.69;4959905;28;20129;-93
2023/04/02 10:55:13;;;;;;;6.55;3.10;;;;;;;6.06;86.50;102290.56;4962844;28;20031;-91
2023/04/02 10:57:44;;;;;;;6.07;3.22;;;;;;;6.30;87.36;102296.13;4974177;28;20023;-93
2023/04/02 11:00:19;;;;;;;6.30;2.92;;;;;;;6.33;86.61;102303.06;4975050;28;20509;-92
2023/04/02 11:02:54;;;;;;;4.13;2.83;;;;;;;6.39;85.62;102292.84;4971894;28;20062;-93
2023/04/02 11:05:51;;;;;;;6.28;3.10;;;;;;;6.25;84.57;102307.19;4962944;28;20030;-92
2023/04/02 11:08:25;;;;;;;6.97;3.10;;;;;;;6.26;85.26;102308.94;4974664;28;21160;-92
2023/04/02 11:10:57;;;;;;;5.88;2.75;;;;;;;6.20;84.84;102293.38;4960080;28;20031;-92
2023/04/02 11:13:26;;;;;;;5.72;2.72;;;;;;;6.39;83.98;102317.72;4960409;28;20082;-92
2023/04/02 11:15:52;;;;;;;5.13;3.00;;;;;;;6.31;83.89;102300.44;4959671;28;20062;-92
2023/04/02 11:18:34;;;;;;;6.80;3.13;;;;;;;6.45;84.29;102318.72;4959474;28;20444;-93
2023/04/02 11:21:29;;;;;;;4.80;3.10;;;;;;;6.44;82.82;102311.81;4958243;28;20038;-93
2023/04/02 11:24:02;;;;;;;5.07;2.83;;;;;;;6.42;82.45;102320.34;4936121;28;20503;-93
2023/04/02 11:26:30;;;;;;;6.82;3.40;;;;;;;6.22;82.27;102327.72;4974517;28;20031;-92
2023/04/02 11:29:18;;;;;;;5.93;3.42;;;;;;;6.30;85.00;102342.47;4956487;28;20452;-92
2023/04/02 11:31:45;;;;;;;5.68;3.20;;;;;;;6.32;82.41;102345.97;4957306;28;20053;-93
2023/04/02 11:34:35;;;;;;;5.05;2.90;;;;;;;6.22;83.93;102328.59;4972393;28;20121;-92
2023/04/02 11:37:03;;;;;;;6.32;3.00;;;;;;;6.23;83.71;102338.06;4951904;28;20085;-92
2023/04/02 11:39:52;;;;;;;6.28;3.25;;;;;;;6.26;85.48;102342.41;4972648;28;20491;-92
2023/04/02 11:42:24;;;;;;;6.30;3.45;;;;;;;6.33;82.71;102350.28;4959815;28;20034;-92
2023/04/02 11:44:50;;;;;;;6.03;3.20;;;;;;;6.29;81.55;102360.47;4973514;28;20042;-93
2023/04/02 11:47:21;;;;;;;8.13;3.50;;;;;;;6.16;82.43;102346.50;4958025;28;20027;-92
2023/04/02 11:49:56;;;;;;;6.22;3.40;;;;;;;6.44;85.17;102373.63;4973400;28;20026;-92
2023/04/02 11:52:26;;;;;;;6.07;3.50;;;;;;;6.45;83.39;102359.03;4958976;28;20026;-92
2023/04/02 11:55:01;;;;;;;5.35;3.05;;;;;;;6.65;81.09;102380.88;4974242;28;20034;-92
2023/04/02 11:57:42;;;;;;;6.90;3.67;;;;;;;6.75;81.50;102383.59;4957991;28;20031;-91
2023/04/02 12:00:12;;;;;;;5.72;3.20;;;;;;;6.73;79.55;102384.44;4954356;28;20027;-91
2023/04/02 12:03:06;;;;;;;5.85;3.13;;;;;;;6.55;81.52;102379.81;4974888;28;20046;-91
2023/04/02 12:05:41;;;;;;;6.70;2.78;;;;;;;6.40;80.29;102384.72;4973185;28;20174;-93
2023/04/02 12:08:22;;;;;;;7.47;3.08;;;;;;;6.41;82.07;102412.22;4973005;28;20057;-91